Flight Track Log - Related Links

Times and Time Zones

All times are in EDT time to prevent confusion due to time zone crossing. See the N319EE flight status page for this flight to view local times or setup timezone preferences in your user account.

Time Position Orientation Groundspeed Altitude Reporting Facility
EDT Latitude Longitude Course Direction KTS MPH feet Rate Location/Type
Thu 01:18:15 PM 43.0611 -77.7244 214° Southwest 174 200 2,600  Level Cleveland Center
Thu 01:18:34 PM 43.0444 -77.7378 210° Southwest 174 200 3,300 1,756 Climbing Cleveland Center
Thu 01:19:37 PM 43.0050 -77.7269 169° South 185 213 5,000 1,584 Climbing Cleveland Center
Thu 01:20:39 PM 43.0131 -77.6625 80° East 175 201 6,600 1,548 Climbing Cleveland Center
Thu 01:21:41 PM 43.0206 -77.5953 81° East 178 205 8,200 1,742 Climbing Cleveland Center
Thu 01:22:43 PM 43.0278 -77.5269 82° East 182 209 10,200 1,355 Climbing Cleveland Center
Thu 01:23:45 PM 43.0361 -77.4389 83° East 199 229 11,000 387 Climbing Cleveland Center
Thu 01:24:47 PM 43.0467 -77.3417 82° East 253 291 11,000  Level Cleveland Center
Thu 01:25:49 PM 43.0567 -77.2425 82° East 262 302 11,000 242 Level Cleveland Center
Thu 01:26:51 PM 43.0667 -77.1450 82° East 261 300 11,500 774 Climbing Cleveland Center
Thu 01:27:53 PM 43.0764 -77.0556 82° East 242 278 12,600 726 Climbing Cleveland Center
Thu 01:28:55 PM 43.0853 -76.9683 82° East 233 268 13,000 194 Climbing Cleveland Center
Thu 01:29:57 PM 43.0978 -76.8519 82° East 255 293 13,000  Level Cleveland Center
Thu 01:30:59 PM 43.1072 -76.7528 83° East 262 302 13,000 48 Level Cleveland Center
Thu 01:32:02 PM 43.1178 -76.6589 81° East 264 304 13,100 480 Climbing Cleveland Center
Thu 01:33:04 PM 43.1261 -76.5636 83° East 255 293 14,000 435 Climbing Cleveland Center
Thu 01:34:06 PM 43.1344 -76.4678 83° East 254 292 14,000  Level Cleveland Center
Thu 01:35:08 PM 43.1467 -76.3464 82° East 266 306 14,000 484 Level Cleveland Center
Thu 01:36:10 PM 43.1556 -76.2525 83° East 256 295 15,000 484 Climbing Cleveland Center
Thu 01:37:12 PM 43.1644 -76.1567 83° East 253 291 15,000 -48 Level Cleveland Center
Thu 01:38:14 PM 43.1722 -76.0583 84° East 259 298 14,900  Descending Cleveland Center
Thu 01:39:16 PM 43.1797 -75.9608 84° East 260 299 15,000 49 Climbing Cleveland Center
Thu 01:40:16 PM 43.1889 -75.8633 83° East 254 292 15,000  Level Boston Center
Thu 01:41:17 PM 43.1981 -75.7642 83° East 254 292 15,000  Level Boston Center
Thu 01:42:17 PM 43.2050 -75.6675 84° East 254 292 15,000  Level Boston Center
Thu 01:43:15 PM 43.2119 -75.5711 84° East 254 292 15,000  Level Boston Center
Thu 01:44:15 PM 43.2186 -75.4744 85° East 254 292 15,000 -50 Level Boston Center
Thu 01:45:15 PM 43.2253 -75.3781 85° East 249 287 14,900  Descending Boston Center
Thu 01:46:16 PM 43.2325 -75.2672 85° East 254 292 15,000  Climbing Boston Center
Thu 01:47:16 PM 43.2411 -75.1706 83° East 254 292 14,900  Descending Boston Center
Thu 01:48:15 PM 43.2494 -75.0742 83° East 254 292 15,000 50 Climbing Boston Center
Thu 01:49:17 PM 43.2558 -74.9775 85° East 254 292 15,000  Level Boston Center
Thu 01:50:17 PM 43.2622 -74.8808 85° East 254 292 15,000 -51 Level Boston Center
Thu 01:51:15 PM 43.2683 -74.7839 85° East 254 292 14,900 -50 Descending Boston Center
Thu 01:52:16 PM 43.2764 -74.6872 83° East 254 292 14,900  Level Boston Center
Thu 01:53:16 PM 43.2825 -74.5906 85° East 254 292 14,900  Level Boston Center
Thu 01:54:15 PM 43.2886 -74.4939 85° East 254 292 14,900 50 Level Boston Center
Thu 01:55:15 PM 43.2944 -74.3969 85° East 249 287 15,000 50 Climbing Boston Center
Thu 01:56:16 PM 43.3000 -74.3086 85° East 254 292 15,000  Level Boston Center
Thu 01:57:16 PM 43.3058 -74.2033 86° East 254 292 15,000  Level Boston Center
Thu 01:58:17 PM 43.3114 -74.1150 85° East 254 292 15,000  Level Boston Center
Thu 01:59:17 PM 43.3192 -74.0097 84° East 254 292 15,000  Level Boston Center
Thu 02:00:15 PM 43.3244 -73.9214 85° East 254 292 15,000  Level Boston Center
Thu 02:01:17 PM 43.3297 -73.8244 86° East 254 292 15,000  Level Boston Center
Thu 02:02:17 PM 43.3372 -73.7189 84° East 254 292 15,000  Level Boston Center
Thu 02:03:17 PM 43.3403 -73.6306 87° East 254 292 15,000  Level Boston Center
Thu 02:04:15 PM 43.3497 -73.5222 83° East 254 292 15,000  Level Boston Center
Thu 02:05:16 PM 43.3528 -73.4336 87° East 254 292 15,000  Level Boston Center
Thu 02:06:16 PM 43.3597 -73.3253 85° East 254 292 15,000  Level Boston Center
Thu 02:07:17 PM 43.3647 -73.2397 85° East 254 292 15,000  Level Boston Center
Thu 02:08:17 PM 43.3694 -73.1314 87° East 254 292 15,000  Level Boston Center
Thu 02:09:15 PM 43.3761 -73.0428 84° East 254 292 15,000  Level Boston Center
Thu 02:10:15 PM 43.3831 -72.9458 84° East 254 292 15,000  Level Boston Center
Thu 02:11:16 PM 43.3897 -72.8431 85° East 254 292 15,000  Level Boston Center
Thu 02:12:16 PM 43.3942 -72.7486 86° East 254 292 15,000  Level Boston Center
Thu 02:13:17 PM 43.3983 -72.6458 87° East 254 292 15,000  Level Boston Center
Thu 02:14:17 PM 43.4028 -72.5486 86° East 254 292 15,000  Level Boston Center
Thu 02:15:17 PM 43.4092 -72.4458 85° East 254 292 15,000  Level Boston Center
Thu 02:16:15 PM 43.4133 -72.3458 87° East 254 292 15,000  Level Boston Center
Thu 02:17:15 PM 43.4194 -72.2458 85° East 254 292 15,000  Level Boston Center
Thu 02:18:15 PM 43.4233 -72.1486 87° East 254 292 15,000  Level Boston Center
Thu 02:19:16 PM 43.4272 -72.0483 87° East 254 292 15,000  Level Boston Center
Thu 02:20:17 PM 43.4308 -71.9483 87° East 254 292 15,000  Level Boston Center
Thu 02:21:17 PM 43.4347 -71.8369 87° East 254 292 15,000  Level Boston Center
Thu 02:22:15 PM 43.4403 -71.7394 85° East 254 292 15,000  Level Boston Center
Thu 02:23:15 PM 43.4439 -71.6367 87° East 254 292 15,000  Level Boston Center
Thu 02:24:16 PM 43.4492 -71.5364 86° East 254 292 15,000 -49 Level Boston Center
Thu 02:25:17 PM 43.4525 -71.4333 87° East 254 292 14,900 -706 Descending Boston Center
Thu 02:26:15 PM 43.4558 -71.3275 87° East 268 308 13,600 -1,475 Descending Boston Center
Thu 02:27:15 PM 43.4608 -71.2131 87° East 290 334 12,000 -1,300 Descending Boston Center
Thu 02:28:15 PM 43.4764 -71.1069 79° East 290 334 11,000 -496 Descending Boston Center
Thu 02:29:16 PM 43.4981 -71.0175 72° East 264 304 11,000 -650 Level Boston Center
Thu 02:30:15 PM 43.5200 -70.9369 69° East 247 284 9,700 -1,714 Descending Boston Center
Thu 02:31:15 PM 43.5456 -70.8244 73° East 263 303 7,600 -1,983 Descending Boston Center
Thu 02:32:16 PM 43.5650 -70.7236 75° East 270 311 5,700 -1,686 Descending Boston Center
Thu 02:33:16 PM 43.5656 -70.6264 90° East 259 298 4,200 -857 Descending Boston Center
Thu 02:34:15 PM 43.5642 -70.5375 91° East 238 274 4,000 -151 Descending Boston Center
Thu 02:35:15 PM 43.5631 -70.4658 91° East 215 247 3,900 -694 Descending Boston Center
Thu 02:36:16 PM 43.5886 -70.3819 67° East 209 241 2,600 -1,091 Descending Boston Center
Thu 02:37:16 PM 43.6000 -70.3300 73° East 198 228 1,700 -950 Descending Boston Center
Thu 02:38:16 PM 43.6303 -70.2772 52° Northeast 147 169 700 4,612 Descending Boston Center
Thu 02:39:17 PM 43.6556 -70.2906 339° North 102 117 11,000 5,193 Climbing Boston Center
Thu 02:40:15 PM 43.6828 -70.2983 348° North 102 117 11,000  Level Boston Center
Thu 02:41:16 PM 43.7081 -70.3031 352° North 102 117 11,000  Level Boston Center

Login

Don't have an account? Register now (free) for customized features, flight alerts, and more!